createdAt,value
2023-04-29T00:00:44.749Z,18.80
2023-04-29T00:03:11.633Z,17.90
2023-04-29T00:05:38.520Z,18.10
2023-04-29T00:08:05.883Z,18.43
2023-04-29T00:10:32.536Z,19.07
2023-04-29T00:12:59.305Z,17.50
2023-04-29T00:15:25.962Z,17.50
2023-04-29T00:17:52.735Z,16.70
2023-04-29T00:20:19.422Z,15.40
2023-04-29T00:22:46.161Z,14.50
2023-04-29T00:25:13.084Z,15.37
2023-04-29T00:27:40.772Z,13.17
2023-04-29T00:30:08.515Z,13.70
2023-04-29T00:32:35.259Z,12.33
2023-04-29T00:35:02.272Z,11.30
2023-04-29T00:37:29.000Z,10.30
2023-04-29T00:39:55.609Z,9.20
2023-04-29T00:42:22.410Z,9.20
2023-04-29T00:44:49.045Z,9.13
2023-04-29T00:47:15.679Z,9.40
2023-04-29T00:49:43.166Z,8.50
2023-04-29T00:52:11.628Z,8.40
2023-04-29T00:54:39.073Z,8.63
2023-04-29T00:57:07.025Z,8.67
2023-04-29T00:59:34.414Z,8.20
2023-04-29T01:02:04.772Z,8.20
2023-04-29T01:04:31.746Z,8.70
2023-04-29T01:07:14.384Z,9.70
2023-04-29T01:09:49.323Z,9.90
2023-04-29T01:12:27.826Z,10.50
2023-04-29T01:15:06.271Z,11.70
2023-04-29T01:17:48.564Z,12.60
2023-04-29T01:20:16.448Z,14.73
2023-04-29T01:22:43.962Z,18.20
2023-04-29T01:25:11.141Z,19.63
2023-04-29T01:28:28.786Z,20.10
2023-04-29T01:31:14.048Z,20.53
2023-04-29T01:34:04.220Z,22.03
2023-04-29T01:36:57.394Z,25.50
2023-04-29T01:39:37.211Z,22.63
2023-04-29T01:42:09.258Z,24.37
2023-04-29T01:44:36.639Z,26.10
2023-04-29T01:47:03.561Z,34.17
2023-04-29T01:49:37.438Z,36.20
2023-04-29T01:52:05.175Z,37.47
2023-04-29T01:54:32.455Z,41.17
2023-04-29T01:56:59.245Z,43.70
2023-04-29T01:59:31.696Z,44.47
2023-04-29T02:02:21.209Z,44.53
2023-04-29T02:04:55.894Z,49.93
2023-04-29T02:07:23.849Z,49.73
2023-04-29T02:09:51.117Z,48.27
2023-04-29T02:12:18.568Z,50.60
2023-04-29T02:14:47.729Z,48.90
2023-04-29T02:17:14.469Z,50.30
2023-04-29T02:19:42.454Z,51.50
2023-04-29T02:22:10.890Z,49.43
2023-04-29T02:24:37.806Z,51.57
2023-04-29T02:27:05.823Z,49.37
2023-04-29T02:29:33.295Z,52.13
2023-04-29T02:32:00.019Z,52.40
2023-04-29T02:34:26.683Z,51.10
2023-04-29T02:36:53.606Z,51.00
2023-04-29T02:39:21.688Z,49.63
2023-04-29T02:41:48.624Z,51.97
2023-04-29T02:44:15.771Z,52.40
2023-04-29T02:46:45.305Z,50.37
2023-04-29T02:49:13.982Z,52.73
2023-04-29T02:51:41.331Z,52.90
2023-04-29T02:54:08.421Z,51.20
2023-04-29T02:56:35.234Z,48.60
2023-04-29T02:59:01.910Z,51.87
2023-04-29T03:01:29.106Z,51.90
2023-04-29T03:03:56.230Z,52.73
2023-04-29T03:06:23.003Z,49.43
2023-04-29T03:08:50.602Z,52.40
2023-04-29T03:11:18.281Z,51.83
2023-04-29T03:13:45.937Z,50.20
2023-04-29T03:16:16.767Z,49.93
2023-04-29T03:18:44.264Z,51.07
2023-04-29T03:21:10.955Z,51.20
2023-04-29T03:23:39.413Z,52.83
2023-04-29T03:26:07.754Z,50.90
2023-04-29T03:28:34.464Z,51.30
2023-04-29T03:31:01.657Z,49.70
2023-04-29T03:33:28.589Z,49.03
2023-04-29T03:35:55.666Z,45.27
2023-04-29T03:38:36.342Z,48.47
2023-04-29T03:41:04.878Z,48.67
2023-04-29T03:43:31.683Z,45.43
2023-04-29T03:45:58.686Z,42.93
2023-04-29T03:48:25.720Z,41.60
2023-04-29T03:50:53.083Z,41.83
2023-04-29T03:53:20.732Z,43.20
2023-04-29T03:55:48.510Z,41.53
2023-04-29T03:58:16.412Z,39.53
2023-04-29T04:00:43.657Z,39.80
2023-04-29T04:03:16.297Z,40.93
2023-04-29T04:05:43.828Z,41.30
2023-04-29T04:08:13.826Z,41.47
2023-04-29T04:10:40.447Z,43.70
2023-04-29T04:13:17.795Z,43.17
2023-04-29T04:15:51.035Z,37.73
2023-04-29T04:18:18.264Z,33.97
2023-04-29T04:20:45.224Z,36.03
2023-04-29T04:23:11.930Z,30.87
2023-04-29T04:25:38.764Z,35.27
2023-04-29T04:28:28.248Z,33.60
2023-04-29T04:31:14.564Z,36.23
2023-04-29T04:33:41.516Z,34.90
2023-04-29T04:36:08.280Z,36.57
2023-04-29T04:38:35.129Z,36.90
2023-04-29T04:41:08.006Z,36.23
2023-04-29T04:43:36.944Z,31.47
2023-04-29T04:46:15.777Z,30.70
2023-04-29T04:48:53.002Z,29.40
2023-04-29T04:51:20.705Z,27.93
2023-04-29T04:53:47.486Z,24.50
2023-04-29T04:56:22.787Z,24.43
2023-04-29T04:58:50.175Z,24.30
2023-04-29T05:01:16.842Z,24.07
2023-04-29T05:03:44.057Z,27.97
2023-04-29T05:06:10.989Z,27.13
2023-04-29T05:08:40.280Z,27.33
2023-04-29T05:11:16.300Z,29.27
2023-04-29T05:13:43.035Z,28.43
2023-04-29T05:16:10.829Z,30.10
2023-04-29T05:18:44.105Z,28.73
2023-04-29T05:21:11.896Z,31.90
2023-04-29T05:23:38.626Z,33.23
2023-04-29T05:26:05.401Z,36.10
2023-04-29T05:28:32.111Z,32.30
2023-04-29T05:30:59.063Z,32.90
2023-04-29T05:33:25.689Z,31.40
2023-04-29T05:35:52.373Z,31.00
2023-04-29T05:38:19.068Z,29.43
2023-04-29T05:41:05.743Z,31.83
2023-04-29T05:43:33.080Z,33.37
2023-04-29T05:45:59.991Z,32.80
2023-04-29T05:48:26.638Z,31.50
2023-04-29T05:50:53.893Z,33.57
2023-04-29T05:53:20.585Z,32.20
2023-04-29T05:55:51.266Z,32.87
2023-04-29T05:58:18.337Z,33.10
2023-04-29T06:00:45.088Z,29.40
2023-04-29T06:03:18.206Z,28.80
2023-04-29T06:05:45.685Z,28.37
2023-04-29T06:08:32.901Z,29.77
2023-04-29T06:11:05.246Z,29.40
2023-04-29T06:13:33.096Z,29.87
2023-04-29T06:16:00.175Z,29.53
2023-04-29T06:18:30.545Z,27.00
2023-04-29T06:20:58.530Z,30.03
2023-04-29T06:23:25.284Z,28.60
2023-04-29T06:25:53.120Z,31.50
2023-04-29T06:28:21.129Z,28.37
2023-04-29T06:30:47.761Z,28.63
2023-04-29T06:33:14.878Z,29.73
2023-04-29T06:35:41.917Z,28.23
2023-04-29T06:38:24.775Z,29.47
2023-04-29T06:41:11.695Z,31.63
2023-04-29T06:44:01.557Z,27.97
2023-04-29T06:46:37.153Z,27.73
2023-04-29T06:49:08.692Z,26.67
2023-04-29T06:51:36.881Z,27.40
2023-04-29T06:54:04.272Z,26.77
2023-04-29T06:56:31.055Z,25.60
2023-04-29T06:58:57.733Z,25.40
2023-04-29T07:01:24.578Z,23.70
2023-04-29T07:03:51.380Z,26.80
2023-04-29T07:06:19.374Z,29.17
2023-04-29T07:08:46.021Z,26.00
2023-04-29T07:11:15.005Z,27.00
2023-04-29T07:13:41.626Z,28.37
2023-04-29T07:16:16.727Z,29.10
2023-04-29T07:18:43.973Z,28.77
2023-04-29T07:21:10.595Z,27.73
2023-04-29T07:23:37.302Z,27.53
2023-04-29T07:26:15.782Z,30.47
2023-04-29T07:28:45.123Z,32.40
2023-04-29T07:31:14.924Z,31.07
2023-04-29T07:33:41.770Z,34.03
2023-04-29T07:36:11.149Z,32.67
2023-04-29T07:38:37.792Z,32.47
2023-04-29T07:41:04.532Z,36.30
2023-04-29T07:43:31.180Z,36.10
2023-04-29T07:45:57.909Z,36.30
2023-04-29T07:48:24.637Z,36.57
2023-04-29T07:50:51.306Z,37.67
2023-04-29T07:53:18.378Z,37.73
2023-04-29T07:55:44.977Z,38.60
2023-04-29T07:58:11.952Z,37.27
2023-04-29T08:00:38.889Z,36.43
2023-04-29T08:03:06.459Z,35.73
2023-04-29T08:05:33.841Z,36.87
2023-04-29T08:08:00.745Z,35.20
2023-04-29T08:10:27.414Z,34.70
2023-04-29T08:12:54.063Z,34.70
2023-04-29T08:15:22.165Z,32.00
2023-04-29T08:17:48.844Z,32.20
2023-04-29T08:20:15.634Z,32.70
2023-04-29T08:22:42.588Z,30.70
2023-04-29T08:25:09.781Z,31.23
2023-04-29T08:27:36.748Z,30.70
2023-04-29T08:30:03.635Z,30.60
2023-04-29T08:32:30.436Z,29.43
2023-04-29T08:34:57.094Z,29.90
2023-04-29T08:37:23.943Z,25.80
2023-04-29T08:39:50.528Z,28.13
2023-04-29T08:42:21.362Z,29.17
2023-04-29T08:44:49.209Z,29.67
2023-04-29T08:47:16.483Z,28.53
2023-04-29T08:49:43.232Z,29.20
2023-04-29T08:52:09.861Z,29.90
2023-04-29T08:54:36.478Z,31.10
2023-04-29T08:57:05.115Z,33.17
2023-04-29T08:59:32.543Z,35.43
2023-04-29T09:02:00.214Z,33.00
2023-04-29T09:04:32.769Z,32.30
2023-04-29T09:06:59.882Z,33.17
2023-04-29T09:09:26.715Z,36.60
2023-04-29T09:11:53.575Z,36.53
2023-04-29T09:14:20.990Z,35.83
2023-04-29T09:16:47.934Z,37.27
2023-04-29T09:19:34.713Z,37.77
2023-04-29T09:22:07.161Z,34.17
2023-04-29T09:24:33.906Z,34.17
2023-04-29T09:27:00.590Z,36.57
2023-04-29T09:29:27.252Z,33.43
2023-04-29T09:31:53.940Z,36.27
2023-04-29T09:34:39.524Z,30.83
2023-04-29T09:37:25.163Z,32.33
2023-04-29T09:39:52.064Z,32.63
2023-04-29T09:42:18.725Z,34.03
2023-04-29T09:44:45.473Z,34.50
2023-04-29T09:47:13.191Z,29.70
2023-04-29T09:49:42.382Z,33.87
2023-04-29T09:52:11.074Z,31.40
2023-04-29T09:54:40.655Z,29.60
2023-04-29T09:57:09.692Z,30.53
2023-04-29T09:59:38.606Z,29.47
2023-04-29T10:02:15.367Z,31.30
2023-04-29T10:04:44.387Z,27.33
2023-04-29T10:07:16.015Z,28.27
2023-04-29T10:09:46.095Z,27.37
2023-04-29T10:12:17.297Z,30.93
2023-04-29T10:14:50.351Z,31.10
2023-04-29T10:17:24.915Z,32.13
2023-04-29T10:19:58.435Z,33.17
2023-04-29T10:22:50.874Z,32.27
2023-04-29T10:25:19.965Z,34.27
2023-04-29T10:27:48.851Z,32.50
2023-04-29T10:30:18.304Z,32.00
2023-04-29T10:32:51.090Z,32.17
2023-04-29T10:35:22.122Z,33.23
2023-04-29T10:37:49.633Z,32.60
2023-04-29T10:40:17.862Z,32.60
2023-04-29T10:42:50.305Z,30.60
2023-04-29T10:45:31.604Z,27.93
2023-04-29T10:48:10.535Z,30.50
2023-04-29T10:50:49.026Z,28.23
2023-04-29T10:53:19.286Z,27.70
2023-04-29T10:55:54.659Z,28.83
2023-04-29T10:58:41.638Z,31.17
2023-04-29T11:01:11.406Z,31.67
2023-04-29T11:04:11.525Z,31.97
2023-04-29T11:06:39.781Z,31.40
2023-04-29T11:09:13.585Z,33.80
2023-04-29T11:11:45.355Z,34.70
2023-04-29T11:14:14.124Z,33.67
2023-04-29T11:16:53.090Z,34.63
2023-04-29T11:19:20.259Z,33.23
2023-04-29T11:21:47.514Z,34.97
2023-04-29T11:24:15.963Z,32.23
2023-04-29T11:26:43.763Z,33.83
2023-04-29T11:29:10.668Z,32.30
2023-04-29T11:31:39.273Z,32.37
2023-04-29T11:34:07.164Z,35.67
2023-04-29T11:36:34.680Z,34.97
2023-04-29T11:39:03.444Z,35.07
2023-04-29T11:41:31.432Z,32.07
2023-04-29T11:43:59.818Z,32.37
2023-04-29T11:46:28.111Z,34.33
2023-04-29T11:48:54.779Z,34.10
2023-04-29T11:51:22.372Z,35.67
2023-04-29T11:53:49.238Z,34.73
2023-04-29T11:56:15.947Z,38.00
2023-04-29T11:58:43.923Z,33.97
2023-04-29T12:01:11.175Z,43.97
2023-04-29T12:03:37.863Z,39.17
2023-04-29T12:06:05.654Z,38.30
2023-04-29T12:08:34.693Z,37.93
2023-04-29T12:11:01.684Z,37.07
2023-04-29T12:13:30.234Z,36.53
2023-04-29T12:15:58.546Z,36.50
2023-04-29T12:18:27.561Z,39.17
2023-04-29T12:20:55.957Z,36.33
2023-04-29T12:23:28.806Z,33.87
2023-04-29T12:26:00.462Z,35.43
2023-04-29T12:28:27.570Z,35.63
2023-04-29T12:30:54.829Z,35.33
2023-04-29T12:33:27.112Z,35.40
2023-04-29T12:35:55.739Z,32.10
2023-04-29T12:38:29.588Z,34.10
2023-04-29T12:40:59.017Z,31.90
2023-04-29T12:43:27.586Z,31.43
2023-04-29T12:46:00.413Z,31.77
2023-04-29T12:48:33.225Z,30.10
2023-04-29T12:51:01.450Z,30.90
2023-04-29T12:53:29.959Z,28.37
2023-04-29T12:55:57.386Z,27.63
2023-04-29T12:58:24.182Z,26.07
2023-04-29T13:00:50.990Z,25.20
2023-04-29T13:03:19.775Z,26.03
2023-04-29T13:05:51.323Z,26.60
2023-04-29T13:08:19.384Z,26.37
2023-04-29T13:10:46.236Z,27.13
2023-04-29T13:13:13.047Z,26.67
2023-04-29T13:15:39.654Z,26.30
2023-04-29T13:18:06.509Z,28.17
2023-04-29T13:20:33.556Z,27.03
2023-04-29T13:23:00.183Z,24.30
2023-04-29T13:25:26.868Z,25.90
2023-04-29T13:27:53.449Z,25.80
2023-04-29T13:30:20.322Z,26.67
2023-04-29T13:32:53.810Z,26.37
2023-04-29T13:35:21.991Z,27.60
2023-04-29T13:37:49.205Z,27.50
2023-04-29T13:40:20.586Z,27.37
2023-04-29T13:42:50.548Z,26.10
2023-04-29T13:45:23.446Z,25.70
2023-04-29T13:51:03.761Z,25.60
2023-04-29T14:01:01.417Z,24.50
2023-04-29T14:03:21.882Z,25.57
2023-04-29T14:05:48.774Z,23.20
2023-04-29T14:08:15.605Z,22.60
2023-04-29T14:10:42.523Z,23.23
2023-04-29T14:13:09.177Z,22.10
2023-04-29T14:15:35.844Z,22.63
2023-04-29T14:18:02.684Z,22.30
2023-04-29T14:20:29.378Z,21.43
2023-04-29T14:22:56.201Z,21.40
2023-04-29T14:25:22.864Z,21.60
2023-04-29T14:27:49.624Z,19.10
2023-04-29T14:30:16.303Z,20.30
2023-04-29T14:32:42.989Z,20.10
2023-04-29T14:35:10.099Z,21.50
2023-04-29T14:37:36.729Z,21.33
2023-04-29T14:40:04.374Z,19.73
2023-04-29T14:42:31.026Z,19.13
2023-04-29T14:44:57.617Z,19.67
2023-04-29T14:47:24.442Z,19.07
2023-04-29T14:49:51.148Z,20.70
2023-04-29T14:52:17.804Z,20.57
2023-04-29T14:54:44.566Z,19.00
2023-04-29T14:57:11.268Z,19.03
2023-04-29T14:59:37.928Z,18.83
2023-04-29T15:02:04.678Z,19.37
2023-04-29T15:04:31.418Z,21.63
2023-04-29T15:06:58.295Z,21.57
2023-04-29T15:09:26.654Z,22.70
2023-04-29T15:11:53.332Z,21.80
2023-04-29T15:14:19.914Z,19.00
2023-04-29T15:16:46.750Z,17.33
2023-04-29T15:19:13.405Z,18.13
2023-04-29T15:21:40.008Z,18.67
2023-04-29T15:24:08.478Z,21.60
2023-04-29T15:26:35.329Z,21.63
2023-04-29T15:29:02.045Z,19.53
2023-04-29T15:31:30.208Z,27.83
2023-04-29T15:33:57.373Z,23.00
2023-04-29T15:36:29.962Z,21.70
2023-04-29T15:38:57.034Z,20.20
2023-04-29T15:41:25.784Z,21.30
2023-04-29T15:43:53.050Z,20.20
2023-04-29T15:46:19.835Z,20.57
2023-04-29T15:48:46.591Z,20.43
2023-04-29T15:51:16.009Z,21.60
2023-04-29T15:53:43.781Z,7.93
2023-04-29T15:56:11.347Z,20.87
2023-04-29T15:58:37.975Z,21.80
2023-04-29T16:01:04.871Z,21.40
2023-04-29T16:03:31.630Z,23.50
2023-04-29T16:05:58.445Z,22.07
2023-04-29T16:08:25.172Z,23.00
2023-04-29T16:10:52.030Z,22.80
2023-04-29T16:13:18.860Z,23.23
2023-04-29T16:15:45.782Z,24.97
2023-04-29T16:18:13.892Z,26.00
2023-04-29T16:20:40.550Z,22.83
2023-04-29T16:23:07.315Z,22.17
2023-04-29T16:25:33.984Z,21.57
2023-04-29T16:28:00.685Z,20.83
2023-04-29T16:30:28.014Z,21.60
2023-04-29T16:32:54.886Z,20.63
2023-04-29T16:35:26.408Z,21.30
2023-04-29T16:37:53.615Z,21.63
2023-04-29T16:40:20.310Z,21.87
2023-04-29T16:42:47.169Z,22.87
2023-04-29T16:45:14.317Z,23.70
2023-04-29T16:47:41.877Z,22.07
2023-04-29T16:50:09.430Z,22.50
2023-04-29T16:52:36.194Z,23.03
2023-04-29T16:55:03.682Z,22.80
2023-04-29T16:57:30.647Z,24.57
2023-04-29T16:59:57.403Z,23.00
2023-04-29T17:02:24.126Z,24.87
2023-04-29T17:04:51.929Z,25.03
2023-04-29T17:07:21.351Z,26.87
2023-04-29T17:09:48.342Z,29.83
2023-04-29T17:12:15.133Z,32.80
2023-04-29T17:14:41.814Z,33.47
2023-04-29T17:17:08.479Z,30.53
2023-04-29T17:19:35.063Z,30.60
2023-04-29T17:22:01.773Z,27.27
2023-04-29T17:24:28.397Z,26.73
2023-04-29T17:26:54.973Z,25.60
2023-04-29T17:29:21.600Z,26.20
2023-04-29T17:31:54.658Z,25.50
2023-04-29T17:34:25.508Z,27.00
2023-04-29T17:36:53.533Z,25.60
2023-04-29T17:39:20.237Z,25.40
2023-04-29T17:41:46.847Z,25.53
2023-04-29T17:44:13.432Z,25.57
2023-04-29T17:46:40.925Z,26.10
2023-04-29T17:49:07.711Z,25.27
2023-04-29T17:51:34.333Z,26.47
2023-04-29T17:54:02.061Z,26.97
2023-04-29T17:56:29.140Z,25.33
2023-04-29T17:58:55.802Z,25.80
2023-04-29T18:01:22.628Z,28.90
2023-04-29T18:03:51.209Z,31.47
2023-04-29T18:06:18.248Z,33.30
2023-04-29T18:08:45.640Z,32.13
2023-04-29T18:11:12.826Z,29.17
2023-04-29T18:13:40.565Z,26.70
2023-04-29T18:16:08.641Z,26.10
2023-04-29T18:18:38.679Z,25.80
2023-04-29T18:21:05.974Z,25.83
2023-04-29T18:23:32.607Z,27.60
2023-04-29T18:25:59.789Z,25.57
2023-04-29T18:28:26.623Z,27.47
2023-04-29T18:30:53.323Z,26.87
2023-04-29T18:33:20.204Z,27.27
2023-04-29T18:35:46.927Z,26.23
2023-04-29T18:38:17.037Z,26.27
2023-04-29T18:40:44.395Z,26.90
2023-04-29T18:43:11.901Z,26.60
2023-04-29T18:45:38.777Z,26.87
2023-04-29T18:48:06.772Z,26.47
2023-04-29T18:50:33.859Z,27.47
2023-04-29T18:53:00.774Z,26.47
2023-04-29T18:55:27.636Z,27.23
2023-04-29T18:57:54.538Z,26.17
2023-04-29T19:00:21.725Z,27.20
2023-04-29T19:02:48.612Z,25.27
2023-04-29T19:05:15.812Z,27.10
2023-04-29T19:07:42.824Z,27.20
2023-04-29T19:10:09.792Z,25.50
2023-04-29T19:12:36.507Z,25.13
2023-04-29T19:15:03.482Z,25.80
2023-04-29T19:17:30.125Z,25.80
2023-04-29T19:19:56.826Z,28.23
2023-04-29T19:22:23.610Z,31.40
2023-04-29T19:24:50.279Z,30.27
2023-04-29T19:27:16.911Z,27.80
2023-04-29T19:29:43.596Z,27.37
2023-04-29T19:32:10.266Z,27.47
2023-04-29T19:34:37.116Z,29.80
2023-04-29T19:37:04.151Z,29.70
2023-04-29T19:39:30.805Z,29.67
2023-04-29T19:41:58.124Z,28.83
2023-04-29T19:44:24.805Z,27.73
2023-04-29T19:46:53.202Z,30.47
2023-04-29T19:49:20.394Z,32.30
2023-04-29T19:51:47.144Z,28.47
2023-04-29T19:54:14.098Z,30.30
2023-04-29T19:56:40.684Z,29.20
2023-04-29T19:59:07.312Z,30.20
2023-04-29T20:01:34.095Z,28.70
2023-04-29T20:04:00.793Z,29.17
2023-04-29T20:06:28.235Z,30.63
2023-04-29T20:08:55.980Z,30.07
2023-04-29T20:11:23.771Z,29.17
2023-04-29T20:13:50.528Z,30.03
2023-04-29T20:16:17.304Z,33.50
2023-04-29T20:18:44.085Z,34.73
2023-04-29T20:21:11.989Z,33.90
2023-04-29T20:23:38.626Z,32.97
2023-04-29T20:26:05.313Z,31.13
2023-04-29T20:28:31.942Z,33.40
2023-04-29T20:30:58.534Z,34.00
2023-04-29T20:33:25.361Z,35.93
2023-04-29T20:35:52.522Z,34.23
2023-04-29T20:38:19.178Z,32.67
2023-04-29T20:40:45.870Z,32.83
2023-04-29T20:43:12.632Z,33.67
2023-04-29T20:45:39.576Z,32.50
2023-04-29T20:48:06.402Z,32.17
2023-04-29T20:50:33.065Z,32.03
2023-04-29T20:52:59.752Z,34.60
2023-04-29T20:55:26.466Z,35.53
2023-04-29T20:57:53.062Z,35.27
2023-04-29T21:00:19.708Z,35.77
2023-04-29T21:02:46.538Z,36.50
2023-04-29T21:05:13.343Z,35.67
2023-04-29T21:07:39.991Z,34.67
2023-04-29T21:10:07.006Z,33.90
2023-04-29T21:12:33.645Z,31.60
2023-04-29T21:15:00.403Z,32.13
2023-04-29T21:17:27.093Z,32.80
2023-04-29T21:19:53.983Z,32.47
2023-04-29T21:22:20.766Z,32.90
2023-04-29T21:24:47.394Z,32.10
2023-04-29T21:27:14.066Z,32.60
2023-04-29T21:29:41.004Z,31.23
2023-04-29T21:32:08.580Z,33.60
2023-04-29T21:34:35.637Z,32.67
2023-04-29T21:37:02.428Z,30.60
2023-04-29T21:39:31.297Z,29.33
2023-04-29T21:42:00.035Z,28.63
2023-04-29T21:44:26.768Z,29.00
2023-04-29T21:46:53.606Z,29.50
2023-04-29T21:49:20.628Z,32.27
2023-04-29T21:51:47.531Z,28.47
2023-04-29T21:54:14.117Z,26.53
2023-04-29T21:56:40.711Z,27.07
2023-04-29T21:59:07.461Z,28.03
2023-04-29T22:01:48.040Z,27.07
2023-04-29T22:04:18.859Z,28.10
2023-04-29T22:06:45.877Z,28.43
2023-04-29T22:09:12.740Z,30.63
2023-04-29T22:11:39.438Z,28.30
2023-04-29T22:14:06.108Z,28.27
2023-04-29T22:16:35.093Z,28.30
2023-04-29T22:19:01.985Z,29.40
2023-04-29T22:21:28.897Z,29.80
2023-04-29T22:23:55.746Z,28.17
2023-04-29T22:26:25.269Z,29.43
2023-04-29T22:28:52.488Z,30.00
2023-04-29T22:31:19.111Z,31.63
2023-04-29T22:33:45.927Z,30.83
2023-04-29T22:36:12.564Z,29.93
2023-04-29T22:38:39.239Z,30.07
2023-04-29T22:41:07.087Z,31.73
2023-04-29T22:43:33.686Z,32.07
2023-04-29T22:46:00.918Z,27.70
2023-04-29T22:48:28.470Z,30.20
2023-04-29T22:50:56.822Z,31.27
2023-04-29T22:53:23.469Z,34.47
2023-04-29T22:55:51.766Z,32.27
2023-04-29T22:58:19.207Z,31.50
2023-04-29T23:00:46.760Z,28.30
2023-04-29T23:03:13.412Z,27.70
2023-04-29T23:05:40.566Z,25.83
2023-04-29T23:08:07.783Z,25.87
2023-04-29T23:10:35.416Z,26.07
2023-04-29T23:13:02.157Z,24.30
2023-04-29T23:15:29.401Z,23.17
2023-04-29T23:17:59.611Z,23.73
2023-04-29T23:20:26.282Z,25.23
2023-04-29T23:22:53.110Z,24.00
2023-04-29T23:25:19.772Z,24.13
2023-04-29T23:27:46.412Z,22.83
2023-04-29T23:30:13.111Z,21.93
2023-04-29T23:32:39.810Z,19.73
2023-04-29T23:35:06.924Z,17.90
2023-04-29T23:37:33.669Z,17.70
2023-04-29T23:40:00.449Z,17.83
2023-04-29T23:42:27.586Z,16.40
2023-04-29T23:44:54.253Z,15.60
2023-04-29T23:47:21.105Z,15.33
2023-04-29T23:49:47.799Z,14.97
2023-04-29T23:52:14.448Z,13.73
2023-04-29T23:54:41.126Z,14.27
2023-04-29T23:57:07.934Z,13.53
2023-04-29T23:59:34.727Z,13.17
